Sinegorsk — YJRC5 — position and weather

sailwx.info

Track history (hours):
 
Tides and Currents Weather Stations Pressure Air Temp Water Temp Dewpoint Dewpoint Depression Visibility Wind Speed Wind Dir Waves Ship Positions

Sinegorsk

Last reported at 2015-Mar-01 14:31 UTC. Time now 2015-Mar-01 15:09 UTC.
Position N 53°50' E 004°54'.

Length 133 m; draft 6.1 m.

Type: Cargo ship. MMSI: 576292000.

Date/timePositionNaut miles runAvg speedWind from/ knotsBaromVisibWave heightAir tempDewpointWater temp
2015-Mar-01 14:31N 53°50' E 004°54'1211.6
2015-Mar-01 13:32N 53°39' E 004°51'1212.1
2015-Mar-01 12:33N 53°28' E 004°43'1312.2
2015-Mar-01 11:32N 53°16' E 004°36'1412.3
2015-Mar-01 10:26N 53°04' E 004°25'1211.8
2015-Mar-01 09:25N 52°53' E 004°16'1011.4
2015-Mar-01 08:32N 52°45' E 004°07'1211.4
2015-Mar-01 07:29N 52°37' E 003°53'1211.1
2015-Mar-01 06:23N 52°28' E 003°39'6011.8
2015-Mar-01 01:17N 51°43' E 002°33'1013.1
2015-Mar-01 00:33N 51°36' E 002°24'1313.4
2015-Feb-28 23:34N 51°25' E 002°12'1312.8
2015-Feb-28 22:34N 51°13' E 002°03'1414.0
2015-Feb-28 21:34N 51°05' E 001°45'1514.7
2015-Feb-28 20:34N 50°54' E 001°29'3912.9
2015-Feb-28 17:32N 50°29' E 000°43'  
2015-Feb-25 06:28N 39°16' W 009°51'9 9.4
2015-Feb-25 05:33N 39°07' W 009°51'9 9.4
2015-Feb-25 04:33N 38°58' W 009°51'9 9.3
2015-Feb-25 03:33N 38°49' W 009°51'9 9.1
2015-Feb-25 02:33N 38°40' W 009°50'9 8.8
2015-Feb-25 01:33N 38°31' W 009°48'8 8.3
2015-Feb-25 00:33N 38°23' W 009°45'9 8.6
2015-Feb-24 23:30N 38°14' W 009°43'8 8.5
2015-Feb-24 22:34N 38°06' W 009°40'8 8.2
2015-Feb-24 21:33N 37°58' W 009°38'9 8.6
2015-Feb-24 20:33N 37°50' W 009°36'9 8.5
2015-Feb-24 19:33N 37°41' W 009°34'8 8.6
2015-Feb-24 18:33N 37°33' W 009°31'59 8.0
2015-Feb-24 11:07N 36°41' W 008°55'1610.3
2015-Feb-24 09:33N 36°36' W 008°36'15110.1
2015-Feb-23 18:33N 35°58' W 005°34'8 8.5
2015-Feb-23 17:33N 36°01' W 005°25'4 4.3
2015-Feb-23 16:31N 36°06' W 005°24'0 0.1
2015-Feb-23 15:32N 36°06' W 005°24'0 0.1
2015-Feb-23 14:33N 36°06' W 005°24'0 0.1
2015-Feb-23 13:33N 36°05' W 005°24'0 0.0
2015-Feb-23 12:31N 36°06' W 005°24'0 0.0
2015-Feb-23 11:29N 36°06' W 005°24'0 0.0
2015-Feb-23 10:32N 36°06' W 005°24'0 0.0
2015-Feb-23 09:33N 36°06' W 005°24'0 0.0
2015-Feb-23 08:31N 36°06' W 005°24'0 0.0
2015-Feb-23 07:31N 36°06' W 005°24'0 0.1
2015-Feb-23 06:32N 36°06' W 005°24'0 0.0
2015-Feb-23 05:33N 36°06' W 005°24'0 0.0
2015-Feb-23 04:33N 36°06' W 005°24'0 0.0
2015-Feb-23 03:31N 36°06' W 005°24'0 0.0
2015-Feb-23 02:32N 36°06' W 005°24'0 0.0
2015-Feb-23 01:32N 36°06' W 005°24'0 0.0
2015-Feb-23 00:33N 36°06' W 005°24'0 0.0
2015-Feb-22 23:33N 36°06' W 005°24'0 0.0
2015-Feb-22 22:31N 36°06' W 005°24'0 0.1
2015-Feb-22 21:33N 36°06' W 005°24'0 0.0
2015-Feb-22 20:33N 36°06' W 005°24'0 0.0
2015-Feb-22 19:25N 36°06' W 005°24'0 0.0
2015-Feb-22 18:32N 36°06' W 005°24'0 0.1
2015-Feb-22 17:32N 36°06' W 005°24'0 0.0
2015-Feb-22 16:33N 36°06' W 005°24'0 0.0
2015-Feb-22 15:34N 36°06' W 005°24'0 0.0
2015-Feb-22 14:31N 36°06' W 005°24'0 0.0
2015-Feb-22 13:32N 36°06' W 005°24'0 0.0
2015-Feb-22 12:32N 36°06' W 005°24'0 0.0
2015-Feb-22 11:33N 36°06' W 005°24'0 0.1
2015-Feb-22 10:28N 36°06' W 005°24'0 0.0
2015-Feb-22 09:31N 36°06' W 005°24'0 0.0
2015-Feb-22 08:32N 36°06' W 005°24'0 0.1
2015-Feb-22 07:33N 36°06' W 005°24'0 0.1
2015-Feb-22 06:30N 36°06' W 005°24'0 0.1
2015-Feb-22 05:28N 36°06' W 005°24'0 0.0
2015-Feb-22 04:32N 36°06' W 005°24'1 0.5
2015-Feb-22 03:21N 36°05' W 005°25'0 0.1
2015-Feb-22 02:31N 36°05' W 005°24'0 0.0
2015-Feb-21 23:30N 36°05' W 005°24'0 0.1
2015-Feb-21 22:33N 36°05' W 005°24'0 0.0
2015-Feb-21 21:31N 36°05' W 005°24'0 0.0
2015-Feb-21 20:32N 36°05' W 005°24'0 0.0
2015-Feb-21 19:32N 36°05' W 005°24'0 0.0
2015-Feb-21 18:33N 36°05' W 005°24'0 0.0
2015-Feb-21 17:31N 36°05' W 005°24'0 0.0
2015-Feb-21 16:25N 36°05' W 005°24'0 0.0
2015-Feb-21 15:20N 36°05' W 005°24'0 0.0
2015-Feb-21 14:33N 36°05' W 005°24'0 0.1
2015-Feb-21 13:33N 36°05' W 005°24'0 0.0
2015-Feb-21 12:31N 36°05' W 005°24'0 0.0
2015-Feb-21 11:32N 36°05' W 005°24'0 0.0
2015-Feb-21 10:32N 36°05' W 005°24'0 0.0
2015-Feb-21 09:27N 36°05' W 005°24'0 0.0
2015-Feb-21 08:31N 36°05' W 005°24'0 0.0
2015-Feb-21 06:14N 36°05' W 005°25'0 0.2
2015-Feb-21 05:33N 36°05' W 005°25'0 0.1
2015-Feb-21 04:30N 36°05' W 005°25'0 0.1
2015-Feb-21 03:31N 36°05' W 005°25'0 0.0
2015-Feb-21 02:32N 36°05' W 005°25'0 0.0
2015-Feb-21 01:32N 36°05' W 005°25'1 0.6
2015-Feb-21 00:33N 36°05' W 005°24'4 3.6
2015-Feb-20 23:33N 36°05' W 005°20'7 7.1
2015-Feb-20 22:33N 36°04' W 005°11'  
Track history (hours):
 
Tides and Currents Weather Stations Pressure Air Temp Water Temp Dewpoint Dewpoint Depression Visibility Wind Speed Wind Dir Waves Ship Positions

Sinegorsk

Last reported at 2015-Mar-01 14:31 UTC. Time now 2015-Mar-01 15:09 UTC.
Position N 53°50' E 004°54'.

Length 133 m; draft 6.1 m.

Type: Cargo ship. MMSI: 576292000.

Date/timePositionNaut miles runAvg speedWind from/ knotsBaromVisibWave heightAir tempDewpointWater temp
2015-Mar-01 14:31N 53°50' E 004°54'1211.6
2015-Mar-01 13:32N 53°39' E 004°51'1212.1
2015-Mar-01 12:33N 53°28' E 004°43'1312.2
2015-Mar-01 11:32N 53°16' E 004°36'1412.3
2015-Mar-01 10:26N 53°04' E 004°25'1211.8
2015-Mar-01 09:25N 52°53' E 004°16'1011.4
2015-Mar-01 08:32N 52°45' E 004°07'1211.4
2015-Mar-01 07:29N 52°37' E 003°53'1211.1
2015-Mar-01 06:23N 52°28' E 003°39'6011.8
2015-Mar-01 01:17N 51°43' E 002°33'1013.1
2015-Mar-01 00:33N 51°36' E 002°24'1313.4
2015-Feb-28 23:34N 51°25' E 002°12'1312.8
2015-Feb-28 22:34N 51°13' E 002°03'1414.0
2015-Feb-28 21:34N 51°05' E 001°45'1514.7
2015-Feb-28 20:34N 50°54' E 001°29'3912.9
2015-Feb-28 17:32N 50°29' E 000°43'  
2015-Feb-25 06:28N 39°16' W 009°51'9 9.4
2015-Feb-25 05:33N 39°07' W 009°51'9 9.4
2015-Feb-25 04:33N 38°58' W 009°51'9 9.3
2015-Feb-25 03:33N 38°49' W 009°51'9 9.1
2015-Feb-25 02:33N 38°40' W 009°50'9 8.8
2015-Feb-25 01:33N 38°31' W 009°48'8 8.3
2015-Feb-25 00:33N 38°23' W 009°45'9 8.6
2015-Feb-24 23:30N 38°14' W 009°43'8 8.5
2015-Feb-24 22:34N 38°06' W 009°40'8 8.2
2015-Feb-24 21:33N 37°58' W 009°38'9 8.6
2015-Feb-24 20:33N 37°50' W 009°36'9 8.5
2015-Feb-24 19:33N 37°41' W 009°34'8 8.6
2015-Feb-24 18:33N 37°33' W 009°31'59 8.0
2015-Feb-24 11:07N 36°41' W 008°55'1610.3
2015-Feb-24 09:33N 36°36' W 008°36'15110.1
2015-Feb-23 18:33N 35°58' W 005°34'8 8.5
2015-Feb-23 17:33N 36°01' W 005°25'4 4.3
2015-Feb-23 16:31N 36°06' W 005°24'0 0.1
2015-Feb-23 15:32N 36°06' W 005°24'0 0.1
2015-Feb-23 14:33N 36°06' W 005°24'0 0.1
2015-Feb-23 13:33N 36°05' W 005°24'0 0.0
2015-Feb-23 12:31N 36°06' W 005°24'0 0.0
2015-Feb-23 11:29N 36°06' W 005°24'0 0.0
2015-Feb-23 10:32N 36°06' W 005°24'0 0.0
2015-Feb-23 09:33N 36°06' W 005°24'0 0.0
2015-Feb-23 08:31N 36°06' W 005°24'0 0.0
2015-Feb-23 07:31N 36°06' W 005°24'0 0.1
2015-Feb-23 06:32N 36°06' W 005°24'0 0.0
2015-Feb-23 05:33N 36°06' W 005°24'0 0.0
2015-Feb-23 04:33N 36°06' W 005°24'0 0.0
2015-Feb-23 03:31N 36°06' W 005°24'0 0.0
2015-Feb-23 02:32N 36°06' W 005°24'0 0.0
2015-Feb-23 01:32N 36°06' W 005°24'0 0.0
2015-Feb-23 00:33N 36°06' W 005°24'0 0.0
2015-Feb-22 23:33N 36°06' W 005°24'0 0.0
2015-Feb-22 22:31N 36°06' W 005°24'0 0.1
2015-Feb-22 21:33N 36°06' W 005°24'0 0.0
2015-Feb-22 20:33N 36°06' W 005°24'0 0.0
2015-Feb-22 19:25N 36°06' W 005°24'0 0.0
2015-Feb-22 18:32N 36°06' W 005°24'0 0.1
2015-Feb-22 17:32N 36°06' W 005°24'0 0.0
2015-Feb-22 16:33N 36°06' W 005°24'0 0.0
2015-Feb-22 15:34N 36°06' W 005°24'0 0.0
2015-Feb-22 14:31N 36°06' W 005°24'0 0.0
2015-Feb-22 13:32N 36°06' W 005°24'0 0.0
2015-Feb-22 12:32N 36°06' W 005°24'0 0.0
2015-Feb-22 11:33N 36°06' W 005°24'0 0.1
2015-Feb-22 10:28N 36°06' W 005°24'0 0.0
2015-Feb-22 09:31N 36°06' W 005°24'0 0.0
2015-Feb-22 08:32N 36°06' W 005°24'0 0.1
2015-Feb-22 07:33N 36°06' W 005°24'0 0.1
2015-Feb-22 06:30N 36°06' W 005°24'0 0.1
2015-Feb-22 05:28N 36°06' W 005°24'0 0.0
2015-Feb-22 04:32N 36°06' W 005°24'1 0.5
2015-Feb-22 03:21N 36°05' W 005°25'0 0.1
2015-Feb-22 02:31N 36°05' W 005°24'0 0.0
2015-Feb-21 23:30N 36°05' W 005°24'0 0.1
2015-Feb-21 22:33N 36°05' W 005°24'0 0.0
2015-Feb-21 21:31N 36°05' W 005°24'0 0.0
2015-Feb-21 20:32N 36°05' W 005°24'0 0.0
2015-Feb-21 19:32N 36°05' W 005°24'0 0.0
2015-Feb-21 18:33N 36°05' W 005°24'0 0.0
2015-Feb-21 17:31N 36°05' W 005°24'0 0.0
2015-Feb-21 16:25N 36°05' W 005°24'0 0.0
2015-Feb-21 15:20N 36°05' W 005°24'0 0.0
2015-Feb-21 14:33N 36°05' W 005°24'0 0.1
2015-Feb-21 13:33N 36°05' W 005°24'0 0.0
2015-Feb-21 12:31N 36°05' W 005°24'0 0.0
2015-Feb-21 11:32N 36°05' W 005°24'0 0.0
2015-Feb-21 10:32N 36°05' W 005°24'0 0.0
2015-Feb-21 09:27N 36°05' W 005°24'0 0.0
2015-Feb-21 08:31N 36°05' W 005°24'0 0.0
2015-Feb-21 06:14N 36°05' W 005°25'0 0.2
2015-Feb-21 05:33N 36°05' W 005°25'0 0.1
2015-Feb-21 04:30N 36°05' W 005°25'0 0.1
2015-Feb-21 03:31N 36°05' W 005°25'0 0.0
2015-Feb-21 02:32N 36°05' W 005°25'0 0.0
2015-Feb-21 01:32N 36°05' W 005°25'1 0.6
2015-Feb-21 00:33N 36°05' W 005°24'4 3.6
2015-Feb-20 23:33N 36°05' W 005°20'7 7.1
2015-Feb-20 22:33N 36°04' W 005°11'  

Dump ship's entire track history